MDT,Max TemperatureF,Mean TemperatureF,Min TemperatureF,Max Dew PointF,MeanDew PointF,Min DewpointF,Max Humidity, Mean Humidity, Min Humidity, Max Sea Level PressureIn, Mean Sea Level PressureIn, Min Sea Level PressureIn, Max VisibilityMiles, Mean VisibilityMiles, Min VisibilityMiles, Max Wind SpeedMPH, Mean Wind SpeedMPH, Max Gust SpeedMPH,PrecipitationIn, CloudCover, Events, WindDirDegrees
2012-10-1,80,62,44,45,35,30,62,39,21,30.29,30.19,30.04,10,10,9,10,5,,0.00,0,,47
2012-10-2,82,62,41,41,37,32,71,49,20,30.06,30.01,29.90,10,10,9,12,3,,0.00,0,,6
2012-10-3,64,54,44,27,18,12,37,25,15,30.26,30.17,29.97,10,10,4,21,12,26,0.00,1,,298
2012-10-4,62,47,32,25,20,16,60,38,20,30.24,30.19,30.13,10,10,6,12,4,,0.00,0,,230
2012-10-5,60,46,32,25,21,16,64,39,20,30.31,30.24,30.18,10,10,8,14,6,,0.00,0,,317
2012-10-6,62,45,28,23,20,18,64,37,19,30.31,30.24,30.17,10,10,6,22,7,28,0.03,0,,101
2012-10-7,64,46,28,25,20,16,60,41,16,30.25,30.16,30.04,10,10,5,8,3,,0.00,0,,114
2012-10-8,66,47,28,27,22,16,64,43,18,30.07,30.00,29.91,10,10,5,6,2,,0.00,0,,352
2012-10-9,71,50,28,36,26,18,70,44,20,30.07,30.00,29.96,10,9,1,9,2,,0.00,0,,345
2012-10-10,71,53,35,36,29,21,60,43,25,30.04,29.97,29.88,10,8,0,7,3,,0.00,0,,132
2012-10-11,73,53,33,36,30,25,70,49,23,29.99,29.92,29.84,10,9,1,7,2,,0.00,0,,132
2012-10-12,75,55,35,39,31,25,70,46,19,29.95,29.86,29.80,10,10,3,14,2,,0.00,0,,349
2012-10-13,68,59,50,46,43,37,77,54,39,30.26,30.17,29.95,10,10,7,18,11,21,0.05,4,,306
2012-10-14,75,57,39,45,38,32,76,52,27,30.28,30.18,29.99,10,10,3,14,6,18,0.00,0,,119
2012-10-15,71,62,53,48,43,36,72,52,37,30.10,30.01,29.89,10,8,0,13,5,,0.06,4,,128
2012-10-16,64,54,44,52,41,27,82,58,30,30.18,29.92,29.77,10,10,5,28,11,45,0.16,4,Thunderstorm,343
2012-10-17,57,46,35,32,28,25,70,55,33,30.32,30.26,30.19,10,10,6,10,5,,0.00,0,,310
2012-10-18,62,46,30,36,30,25,80,59,30,30.34,30.25,30.08,10,10,4,8,2,,0.00,0,,96
2012-10-19,57,47,37,39,33,27,70,57,44,30.07,29.96,29.79,10,10,9,8,2,,0.00,4,,83
2012-10-20,64,52,41,45,35,27,81,56,32,29.86,29.82,29.79,10,9,2,17,6,23,0.00,3,,316
2012-10-21,55,44,33,30,26,25,75,52,31,29.92,29.86,29.78,10,10,10,12,4,,0.00,0,,334
2012-10-22,51,43,35,39,30,27,76,66,50,29.78,29.68,29.58,10,10,5,21,4,25,0.14,3,,165
2012-10-23,51,42,33,32,28,23,81,60,35,29.98,29.86,29.75,10,10,9,20,8,29,0.07,4,,201
2012-10-24,41,34,28,30,27,21,81,71,61,30.14,30.04,29.98,10,10,10,12,7,,0.02,4,,126
2012-10-25,48,40,32,34,29,25,87,70,46,30.43,30.32,30.15,10,7,0,12,2,17,0.00,4,,326
2012-10-26,48,37,26,28,25,19,80,61,40,30.45,30.31,30.15,10,10,10,20,7,22,0.00,4,,143
2012-10-27,46,38,30,37,31,25,80,70,53,30.20,30.16,30.11,10,10,10,10,3,,0.00,5,,315
2012-10-28,50,44,37,43,37,32,87,79,71,30.12,30.08,30.03,10,8,5,8,3,,0.01,7,,287
2012-10-29,64,53,42,52,42,37,87,77,56,30.14,30.09,30.02,10,4,0,12,3,,0.00,5,,327
2012-10-30,71,56,42,46,40,36,82,60,29,30.13,30.05,29.96,10,4,0,10,3,,0.00,2,,102
2012-10-31,60,51,42,43,36,30,76,57,39,29.98,29.91,29.82,10,10,10,10,3,,0.00,0,,157